Haltom City, Texas
Current Conditions -  °F | °C
As of 12:53 AM on Sunday 21 Dec 2014 (Local Time) from KFTW Reporting Station
Haze Haze  
Wind Chill: 45°   Ceiling: 900
Heat Index: 48°   Visibility: 5mi
Dew Point: 44°   Wind: 6mph
Humidity: 86%   Direction: 150°SSE
Pressure: 30.16"   Gusts: NA
Location:  32.81°N, 97.27°W
Report Text: KFTW 210653Z 15005KT 5SM BR OVC009 09/07 A3016 RMK AO2 SLP211 T00890067
Loading
Personal Weather Stations






























Interactive Weather Map New forecast layout! Learn more

10-Day Weather Forecast

Advertisements
Track Severe Weather on mobile